Time;durP1;ratioP1;P1;durP2;ratioP2;P2;SDS_P1;SDS_P2;PMS_P1;PMS_P2;Temp;Humidity;BMP_temperature;BMP_pressure;BME280_temperature;BME280_humidity;BME280_pressure;Samples;Min_cycle;Max_cycle;Signal;HPM_P1;HPM_P2
2022/12/09 00:01:30;;;;;;;45.33;25.27;;;;;;;;;;6598855;28;20177;-89
2022/12/09 00:04:40;;;;;;;42.37;24.70;;;;;;;;;;6598685;28;20284;-89
2022/12/09 00:07:51;;;;;;;36.27;21.63;;;;;;;;;;6597171;28;20638;-89
2022/12/09 00:11:01;;;;;;;34.63;20.33;;;;;;;;;;6598545;28;20173;-89
2022/12/09 00:14:12;;;;;;;31.70;18.40;;;;;;;;;;6597996;28;20208;-89
2022/12/09 00:17:22;;;;;;;35.80;20.30;;;;;;;;;;6598778;28;20168;-88
2022/12/09 00:20:32;;;;;;;37.10;21.17;;;;;;;;;;6598709;28;20168;-88
2022/12/09 00:23:43;;;;;;;42.70;22.13;;;;;;;;;;6598882;28;20199;-88
2022/12/09 00:26:53;;;;;;;38.33;22.50;;;;;;;;;;6597635;28;20231;-89
2022/12/09 00:30:04;;;;;;;36.93;21.37;;;;;;;;;;6598032;28;20519;-90
2022/12/09 00:33:14;;;;;;;50.27;27.57;;;;;;;;;;6580219;28;20187;-89
2022/12/09 00:36:25;;;;;;;50.20;27.73;;;;;;;;;;6597502;28;20184;-89
2022/12/09 00:39:36;;;;;;;42.37;24.10;;;;;;;;;;6597493;28;20196;-89
2022/12/09 00:42:47;;;;;;;39.33;22.40;;;;;;;;;;6597892;28;20207;-89
2022/12/09 00:45:57;;;;;;;36.93;22.03;;;;;;;;;;6580660;28;20524;-88
2022/12/09 00:49:08;;;;;;;38.57;21.27;;;;;;;;;;6599033;28;20231;-88
2022/12/09 00:52:19;;;;;;;43.37;24.10;;;;;;;;;;6599022;28;20557;-88
2022/12/09 00:55:29;;;;;;;41.43;23.40;;;;;;;;;;6598269;28;20222;-89
2022/12/09 00:58:39;;;;;;;41.87;24.03;;;;;;;;;;6598476;28;20203;-88
2022/12/09 01:01:50;;;;;;;40.63;23.20;;;;;;;;;;6597713;28;20622;-88
2022/12/09 01:05:00;;;;;;;38.07;22.77;;;;;;;;;;6597967;28;20195;-88
2022/12/09 01:08:11;;;;;;;38.10;21.10;;;;;;;;;;6597876;28;20200;-88
2022/12/09 01:11:23;;;;;;;43.87;23.67;;;;;;;;;;6580089;28;20613;-88
2022/12/09 01:14:33;;;;;;;35.57;21.77;;;;;;;;;;6597739;28;20180;-88
2022/12/09 01:17:43;;;;;;;42.07;25.83;;;;;;;;;;6597538;28;20230;-88
2022/12/09 01:20:57;;;;;;;46.67;26.40;;;;;;;;;;6597244;28;20173;-88
2022/12/09 01:24:08;;;;;;;43.60;25.10;;;;;;;;;;6598130;28;20195;-88
2022/12/09 01:27:19;;;;;;;37.07;21.60;;;;;;;;;;6597121;28;20181;-88
2022/12/09 01:30:29;;;;;;;35.43;20.90;;;;;;;;;;6596943;28;20164;-88
2022/12/09 01:33:40;;;;;;;33.10;20.60;;;;;;;;;;6597308;28;20228;-88
2022/12/09 01:36:51;;;;;;;41.57;23.13;;;;;;;;;;6597638;28;20529;-88
2022/12/09 01:40:03;;;;;;;38.83;22.67;;;;;;;;;;6596742;28;20192;-88
2022/12/09 01:43:17;;;;;;;40.63;22.70;;;;;;;;;;6596896;28;20587;-88
2022/12/09 01:46:28;;;;;;;39.93;22.90;;;;;;;;;;6596447;28;20172;-88
2022/12/09 01:49:41;;;;;;;39.87;21.90;;;;;;;;;;6596544;28;20223;-88
2022/12/09 01:52:51;;;;;;;43.13;22.30;;;;;;;;;;6596498;28;20191;-88
2022/12/09 01:56:04;;;;;;;43.27;23.30;;;;;;;;;;6596720;28;20218;-88
2022/12/09 01:59:15;;;;;;;50.93;23.63;;;;;;;;;;6579627;28;20214;-88
2022/12/09 02:02:27;;;;;;;73.07;30.70;;;;;;;;;;6597502;28;20169;-88
2022/12/09 02:05:37;;;;;;;48.87;25.13;;;;;;;;;;6595721;28;20196;-88
2022/12/09 02:08:48;;;;;;;28.97;18.13;;;;;;;;;;6596794;28;20172;-88
2022/12/09 02:12:01;;;;;;;30.70;18.13;;;;;;;;;;6596797;28;20165;-88
2022/12/09 02:15:16;;;;;;;33.67;19.40;;;;;;;;;;6595915;28;20558;-88
2022/12/09 02:18:32;;;;;;;29.87;18.47;;;;;;;;;;6596262;28;20243;-88
2022/12/09 02:21:51;;;;;;;32.83;18.73;;;;;;;;;;6597269;28;20251;-88
2022/12/09 02:25:11;;;;;;;33.23;19.20;;;;;;;;;;6595735;28;20649;-88
2022/12/09 02:28:34;;;;;;;31.23;18.53;;;;;;;;;;6596499;28;20176;-88
2022/12/09 02:32:06;;;;;;;32.43;19.17;;;;;;;;;;6595239;28;20611;-88
2022/12/09 02:35:16;;;;;;;34.17;19.33;;;;;;;;;;6578762;28;20267;-88
2022/12/09 02:38:29;;;;;;;32.53;18.47;;;;;;;;;;6595558;28;20168;-88
2022/12/09 02:41:42;;;;;;;31.60;17.97;;;;;;;;;;6596156;28;20288;-88
2022/12/09 02:44:52;;;;;;;27.87;16.13;;;;;;;;;;6595829;28;20231;-88
2022/12/09 02:48:03;;;;;;;32.20;18.73;;;;;;;;;;6595438;28;20589;-88
2022/12/09 02:51:16;;;;;;;30.10;17.40;;;;;;;;;;6596094;28;20168;-88
2022/12/09 02:54:27;;;;;;;29.90;18.30;;;;;;;;;;6595726;28;20187;-88
2022/12/09 02:57:38;;;;;;;29.67;17.83;;;;;;;;;;6595716;28;20619;-88
2022/12/09 03:00:50;;;;;;;30.80;19.10;;;;;;;;;;6595659;28;20506;-88
2022/12/09 03:04:01;;;;;;;33.80;19.67;;;;;;;;;;6595535;28;20291;-88
2022/12/09 03:07:27;;;;;;;31.67;18.63;;;;;;;;;;6577840;28;20542;-88
2022/12/09 03:10:43;;;;;;;34.00;20.13;;;;;;;;;;6595797;28;20177;-88
2022/12/09 03:13:58;;;;;;;35.63;19.97;;;;;;;;;;6578383;28;20518;-88
2022/12/09 03:17:12;;;;;;;37.17;21.30;;;;;;;;;;6595775;28;20608;-88
2022/12/09 03:20:27;;;;;;;34.60;20.33;;;;;;;;;;6595751;28;20168;-88
2022/12/09 03:23:38;;;;;;;34.37;20.77;;;;;;;;;;6577546;28;20263;-88
2022/12/09 03:26:48;;;;;;;36.87;21.10;;;;;;;;;;6577631;28;20181;-88
2022/12/09 03:30:00;;;;;;;35.87;20.83;;;;;;;;;;6577596;28;20180;-88
2022/12/09 03:33:13;;;;;;;34.67;20.93;;;;;;;;;;6595312;28;20187;-88
2022/12/09 03:36:25;;;;;;;37.33;20.73;;;;;;;;;;6596377;28;20228;-89
2022/12/09 03:39:37;;;;;;;38.10;21.80;;;;;;;;;;6595651;28;20193;-88
2022/12/09 03:42:56;;;;;;;36.37;22.13;;;;;;;;;;6597035;28;20173;-88
2022/12/09 03:46:07;;;;;;;35.30;22.07;;;;;;;;;;6600182;28;20180;-88
2022/12/09 03:49:17;;;;;;;36.70;21.57;;;;;;;;;;6599962;28;20171;-88
2022/12/09 03:52:28;;;;;;;38.40;21.77;;;;;;;;;;6600211;28;20165;-88
2022/12/09 03:55:48;;;;;;;41.63;23.20;;;;;;;;;;6599766;28;20172;-88
2022/12/09 03:59:00;;;;;;;41.37;23.23;;;;;;;;;;6600459;28;20192;-88
2022/12/09 04:02:11;;;;;;;39.57;22.20;;;;;;;;;;6581824;28;20182;-88
2022/12/09 04:05:21;;;;;;;35.77;20.50;;;;;;;;;;6599734;28;20654;-88
2022/12/09 04:08:31;;;;;;;40.30;21.43;;;;;;;;;;6599448;28;20182;-88
2022/12/09 04:11:42;;;;;;;37.90;21.50;;;;;;;;;;6598924;28;20200;-88
2022/12/09 04:14:52;;;;;;;42.30;23.50;;;;;;;;;;6581401;28;20230;-88
2022/12/09 04:18:02;;;;;;;44.87;23.00;;;;;;;;;;6581429;28;20184;-88
2022/12/09 04:21:13;;;;;;;47.97;27.57;;;;;;;;;;6599165;28;20259;-88
2022/12/09 04:24:23;;;;;;;49.83;26.57;;;;;;;;;;6580718;28;20196;-88
2022/12/09 04:27:33;;;;;;;38.27;23.13;;;;;;;;;;6598914;28;20291;-88
2022/12/09 04:30:44;;;;;;;50.00;28.93;;;;;;;;;;6598453;28;20171;-88
2022/12/09 04:33:55;;;;;;;49.33;29.47;;;;;;;;;;6599187;28;20232;-88
2022/12/09 04:37:05;;;;;;;52.40;31.20;;;;;;;;;;6598727;28;20163;-88
2022/12/09 04:40:15;;;;;;;48.10;29.07;;;;;;;;;;6598221;28;20287;-88
2022/12/09 04:43:26;;;;;;;37.73;22.80;;;;;;;;;;6598120;28;20611;-88
2022/12/09 04:46:36;;;;;;;39.70;23.70;;;;;;;;;;6598379;28;20168;-88
2022/12/09 04:49:46;;;;;;;42.10;25.53;;;;;;;;;;6598781;28;20172;-89
2022/12/09 04:52:57;;;;;;;47.10;27.60;;;;;;;;;;6597771;28;20179;-88
2022/12/09 04:56:09;;;;;;;38.07;25.23;;;;;;;;;;6597276;28;20582;-88
2022/12/09 04:59:20;;;;;;;40.50;24.20;;;;;;;;;;6598576;28;20234;-88
2022/12/09 05:02:30;;;;;;;38.40;22.90;;;;;;;;;;6598154;28;20172;-88
2022/12/09 05:05:41;;;;;;;38.77;22.37;;;;;;;;;;6597987;28;20608;-88
2022/12/09 05:08:51;;;;;;;36.07;22.33;;;;;;;;;;6580843;28;20238;-88
2022/12/09 05:12:01;;;;;;;42.07;24.40;;;;;;;;;;6597513;28;20173;-88
2022/12/09 05:15:12;;;;;;;58.20;31.80;;;;;;;;;;6579963;28;20184;-88
2022/12/09 05:18:22;;;;;;;50.03;28.13;;;;;;;;;;6598020;28;20176;-88
2022/12/09 05:21:32;;;;;;;53.00;30.60;;;;;;;;;;6597216;28;20639;-88
2022/12/09 05:24:43;;;;;;;49.83;27.90;;;;;;;;;;6597585;28;20200;-88
2022/12/09 05:27:53;;;;;;;47.43;29.17;;;;;;;;;;6597376;28;20172;-88
2022/12/09 05:31:05;;;;;;;60.53;33.03;;;;;;;;;;6596976;28;20726;-88
2022/12/09 05:34:15;;;;;;;57.70;33.20;;;;;;;;;;6596637;28;20225;-88
2022/12/09 05:37:26;;;;;;;56.67;33.60;;;;;;;;;;6597204;28;20187;-88
2022/12/09 05:40:36;;;;;;;54.73;31.37;;;;;;;;;;6596740;28;20184;-88
2022/12/09 05:43:46;;;;;;;50.63;28.20;;;;;;;;;;6597216;28;20288;-88
2022/12/09 05:46:57;;;;;;;52.13;30.20;;;;;;;;;;6596957;28;20527;-88
2022/12/09 05:50:07;;;;;;;51.07;28.40;;;;;;;;;;6596804;28;20168;-88
2022/12/09 05:53:18;;;;;;;46.53;27.97;;;;;;;;;;6597565;28;20204;-88
2022/12/09 05:56:29;;;;;;;50.30;29.23;;;;;;;;;;6597017;28;20168;-88
2022/12/09 05:59:39;;;;;;;57.57;32.50;;;;;;;;;;6596255;28;20177;-88
2022/12/09 06:02:49;;;;;;;65.97;34.47;;;;;;;;;;6596349;28;20325;-88
2022/12/09 06:06:19;;;;;;;62.47;34.77;;;;;;;;;;6578064;28;20169;-89
2022/12/09 06:09:29;;;;;;;90.73;41.50;;;;;;;;;;6553735;28;20176;-89
2022/12/09 06:12:40;;;;;;;96.23;43.73;;;;;;;;;;6570527;28;20256;-89
2022/12/09 06:15:50;;;;;;;73.90;36.40;;;;;;;;;;6570618;28;20172;-89
2022/12/09 06:19:00;;;;;;;62.40;32.83;;;;;;;;;;6570096;28;20603;-89
2022/12/09 06:22:11;;;;;;;59.27;33.10;;;;;;;;;;6570754;28;20189;-89
2022/12/09 06:25:21;;;;;;;70.80;37.20;;;;;;;;;;6570205;28;20242;-89
2022/12/09 06:28:32;;;;;;;66.27;36.60;;;;;;;;;;6570191;28;20231;-89
2022/12/09 06:31:42;;;;;;;55.33;32.60;;;;;;;;;;6552540;28;20180;-89
2022/12/09 06:34:53;;;;;;;50.53;29.50;;;;;;;;;;6570004;28;20225;-89
2022/12/09 06:38:03;;;;;;;53.70;29.03;;;;;;;;;;6551339;28;20177;-89
2022/12/09 06:41:14;;;;;;;53.57;29.00;;;;;;;;;;6551019;28;20193;-89
2022/12/09 06:44:24;;;;;;;55.03;31.50;;;;;;;;;;6550985;28;20646;-89
2022/12/09 06:47:34;;;;;;;54.70;31.37;;;;;;;;;;6569535;28;20517;-89
2022/12/09 06:50:45;;;;;;;56.97;30.97;;;;;;;;;;6568805;28;20173;-88
2022/12/09 06:53:55;;;;;;;54.03;31.57;;;;;;;;;;6568509;28;20169;-89
2022/12/09 06:57:05;;;;;;;55.60;31.67;;;;;;;;;;6568758;28;20559;-89
2022/12/09 07:00:16;;;;;;;56.47;33.37;;;;;;;;;;6568376;28;20176;-89
2022/12/09 07:03:26;;;;;;;55.43;33.40;;;;;;;;;;6568755;28;20197;-89
2022/12/09 07:06:37;;;;;;;54.47;30.60;;;;;;;;;;6552020;28;20184;-88
2022/12/09 07:09:48;;;;;;;44.93;27.67;;;;;;;;;;6568920;28;20506;-89
2022/12/09 07:12:58;;;;;;;49.47;29.33;;;;;;;;;;6550871;28;20177;-89
2022/12/09 07:16:08;;;;;;;53.40;29.40;;;;;;;;;;6568049;28;20196;-89
2022/12/09 07:19:20;;;;;;;51.17;30.50;;;;;;;;;;6572745;28;20624;-89
2022/12/09 07:22:31;;;;;;;59.67;33.73;;;;;;;;;;6573980;28;20501;-88
2022/12/09 07:25:42;;;;;;;53.47;31.60;;;;;;;;;;6573117;28;20629;-88
2022/12/09 07:28:52;;;;;;;52.40;31.27;;;;;;;;;;6573244;28;20188;-88
2022/12/09 07:32:02;;;;;;;53.97;31.20;;;;;;;;;;6572888;28;20177;-88
2022/12/09 07:35:13;;;;;;;54.13;32.73;;;;;;;;;;6573353;28;20264;-88
2022/12/09 07:38:24;;;;;;;52.83;31.20;;;;;;;;;;6572605;28;20539;-88
2022/12/09 07:41:34;;;;;;;58.40;32.67;;;;;;;;;;6555225;28;20279;-89
2022/12/09 07:44:46;;;;;;;51.03;29.83;;;;;;;;;;6573917;28;20306;-88
2022/12/09 07:47:56;;;;;;;52.57;31.60;;;;;;;;;;6580171;28;20219;-89
2022/12/09 07:51:07;;;;;;;53.03;33.90;;;;;;;;;;6598151;28;20204;-88
2022/12/09 07:54:18;;;;;;;57.10;34.63;;;;;;;;;;6580844;28;20258;-88
2022/12/09 07:57:28;;;;;;;51.53;28.97;;;;;;;;;;6599290;28;20180;-88
2022/12/09 08:00:38;;;;;;;44.63;27.63;;;;;;;;;;6598172;28;20183;-88
2022/12/09 08:03:49;;;;;;;46.57;27.57;;;;;;;;;;6598104;28;20287;-88
2022/12/09 08:06:59;;;;;;;41.70;25.00;;;;;;;;;;6598361;28;20220;-88
2022/12/09 08:10:10;;;;;;;44.07;26.63;;;;;;;;;;6597968;28;20255;-88
2022/12/09 08:13:20;;;;;;;41.70;26.27;;;;;;;;;;6598739;28;20487;-88
2022/12/09 08:16:30;;;;;;;45.93;28.83;;;;;;;;;;6597812;28;20164;-88
2022/12/09 08:19:41;;;;;;;42.10;25.73;;;;;;;;;;6598683;28;20620;-88
2022/12/09 08:22:51;;;;;;;43.80;27.60;;;;;;;;;;6580029;28;20187;-88
2022/12/09 08:26:02;;;;;;;45.87;27.53;;;;;;;;;;6598160;28;20485;-88
2022/12/09 08:29:12;;;;;;;43.20;26.40;;;;;;;;;;6597372;28;20172;-88
2022/12/09 08:32:23;;;;;;;48.90;30.00;;;;;;;;;;6597672;28;20177;-88
2022/12/09 08:35:33;;;;;;;46.47;30.40;;;;;;;;;;6579272;28;20223;-88
2022/12/09 08:38:43;;;;;;;49.77;30.37;;;;;;;;;;6597234;28;20165;-88
2022/12/09 08:41:54;;;;;;;46.00;30.37;;;;;;;;;;6579592;28;20288;-88
2022/12/09 08:45:04;;;;;;;49.00;29.07;;;;;;;;;;6596911;28;20287;-88
2022/12/09 08:48:14;;;;;;;46.13;28.63;;;;;;;;;;6597250;28;20172;-88
2022/12/09 08:51:25;;;;;;;48.37;29.30;;;;;;;;;;6597791;28;20208;-88
2022/12/09 08:54:35;;;;;;;50.50;30.10;;;;;;;;;;6597926;28;20176;-88
2022/12/09 08:57:45;;;;;;;47.27;31.10;;;;;;;;;;6598117;28;20604;-88
2022/12/09 09:00:55;;;;;;;44.47;28.87;;;;;;;;;;6597062;28;20259;-88
2022/12/09 09:04:07;;;;;;;42.77;27.47;;;;;;;;;;6597411;28;20204;-88
2022/12/09 09:07:17;;;;;;;40.40;24.87;;;;;;;;;;6596842;28;20260;-88
2022/12/09 09:10:28;;;;;;;40.47;25.33;;;;;;;;;;6596804;28;20169;-88
2022/12/09 09:13:39;;;;;;;35.93;23.67;;;;;;;;;;6596311;28;20172;-88
2022/12/09 09:16:49;;;;;;;43.57;26.00;;;;;;;;;;6596925;28;20180;-88
2022/12/09 09:20:00;;;;;;;40.63;24.47;;;;;;;;;;6578615;28;20180;-88
2022/12/09 09:23:10;;;;;;;37.93;24.17;;;;;;;;;;6596613;28;20207;-88
2022/12/09 09:26:22;;;;;;;41.20;25.37;;;;;;;;;;6595871;28;20184;-88
2022/12/09 09:29:32;;;;;;;35.80;24.73;;;;;;;;;;6596171;28;20552;-88
2022/12/09 09:32:43;;;;;;;38.97;25.27;;;;;;;;;;6594780;28;20256;-88
2022/12/09 09:35:54;;;;;;;40.23;24.63;;;;;;;;;;6577356;28;20222;-89
2022/12/09 09:39:04;;;;;;;42.07;24.67;;;;;;;;;;6595497;28;20169;-88
2022/12/09 09:42:16;;;;;;;39.27;24.63;;;;;;;;;;6595747;28;20188;-87
2022/12/09 09:45:26;;;;;;;39.60;25.07;;;;;;;;;;6594720;28;20208;-87
2022/12/09 09:48:37;;;;;;;40.30;25.03;;;;;;;;;;6594667;28;20533;-87
2022/12/09 09:51:48;;;;;;;42.50;25.77;;;;;;;;;;6577519;28;20263;-88
2022/12/09 09:54:58;;;;;;;47.00;26.83;;;;;;;;;;6595876;28;20176;-88
2022/12/09 09:58:23;;;;;;;40.77;25.07;;;;;;;;;;6596078;28;20177;-87
2022/12/09 10:01:35;;;;;;;43.20;26.83;;;;;;;;;;6595671;28;20599;-88
2022/12/09 10:05:10;;;;;;;37.70;24.10;;;;;;;;;;6595231;28;20216;-88
2022/12/09 10:08:32;;;;;;;37.07;23.90;;;;;;;;;;6594969;28;20633;-88
2022/12/09 10:11:51;;;;;;;37.30;23.33;;;;;;;;;;6553056;28;20668;-88
2022/12/09 10:15:11;;;;;;;31.83;22.03;;;;;;;;;;6570371;28;20196;-87
2022/12/09 10:18:34;;;;;;;36.17;24.67;;;;;;;;;;6570592;28;20353;-87
2022/12/09 10:21:45;;;;;;;35.77;23.40;;;;;;;;;;6554808;28;20311;-88
2022/12/09 10:24:57;;;;;;;32.80;22.37;;;;;;;;;;6593852;28;20251;-88
2022/12/09 10:28:25;;;;;;;37.27;23.73;;;;;;;;;;6594380;28;20172;-88
2022/12/09 10:31:36;;;;;;;40.03;22.57;;;;;;;;;;6592130;28;20168;-89
2022/12/09 10:34:46;;;;;;;33.90;22.00;;;;;;;;;;6593649;28;20223;-88
2022/12/09 10:38:05;;;;;;;35.57;22.07;;;;;;;;;;6594415;28;20177;-88
2022/12/09 10:43:33;;;;;;;35.63;22.40;;;;;;;;;;6593629;28;20592;-88
2022/12/09 10:44:47;;;;;;;34.03;23.17;;;;;;;;;;6591828;28;20293;-89
2022/12/09 10:47:58;;;;;;;33.43;22.17;;;;;;;;;;6591070;28;20175;-87
2022/12/09 10:51:16;;;;;;;34.30;22.90;;;;;;;;;;6594572;28;20177;-87
2022/12/09 10:54:35;;;;;;;32.50;22.13;;;;;;;;;;6602559;28;20188;-87
2022/12/09 10:57:45;;;;;;;31.47;21.67;;;;;;;;;;6602729;28;20283;-87
2022/12/09 11:01:01;;;;;;;35.50;22.30;;;;;;;;;;6602422;28;20631;-87
2022/12/09 11:04:12;;;;;;;31.37;20.60;;;;;;;;;;6602872;28;20196;-87
2022/12/09 11:07:23;;;;;;;31.03;19.57;;;;;;;;;;6602326;28;20222;-87
2022/12/09 11:10:34;;;;;;;30.97;21.47;;;;;;;;;;6601858;28;20199;-88
2022/12/09 11:13:44;;;;;;;32.60;20.53;;;;;;;;;;6584080;28;20696;-88
2022/12/09 11:16:56;;;;;;;31.87;20.67;;;;;;;;;;6602649;28;20176;-88
2022/12/09 11:20:17;;;;;;;30.80;20.07;;;;;;;;;;6602027;28;20172;-88
2022/12/09 11:23:28;;;;;;;31.37;20.83;;;;;;;;;;6601125;28;20289;-87
2022/12/09 11:26:40;;;;;;;32.03;20.20;;;;;;;;;;6584305;28;20172;-88
2022/12/09 11:30:09;;;;;;;29.30;19.50;;;;;;;;;;6602013;28;21637;-88
2022/12/09 11:33:25;;;;;;;31.63;20.80;;;;;;;;;;6601682;28;20184;-89
2022/12/09 11:36:37;;;;;;;31.83;20.63;;;;;;;;;;6602606;28;20173;-88
2022/12/09 11:39:49;;;;;;;35.67;22.67;;;;;;;;;;6601705;28;20207;-88
2022/12/09 11:42:59;;;;;;;29.80;20.03;;;;;;;;;;6602336;28;20179;-87
2022/12/09 11:46:12;;;;;;;31.30;20.40;;;;;;;;;;6602612;28;20177;-87
2022/12/09 11:49:23;;;;;;;35.47;21.00;;;;;;;;;;6602957;28;20176;-87
2022/12/09 11:52:33;;;;;;;34.00;20.20;;;;;;;;;;6601950;28;20688;-87
2022/12/09 11:55:45;;;;;;;35.87;21.10;;;;;;;;;;6601701;28;20179;-87
2022/12/09 11:59:04;;;;;;;30.07;20.37;;;;;;;;;;6601565;28;20259;-88
2022/12/09 12:02:25;;;;;;;30.63;20.60;;;;;;;;;;6584540;28;20177;-88
2022/12/09 12:05:37;;;;;;;30.10;20.37;;;;;;;;;;6592396;28;20212;-88
2022/12/09 12:08:50;;;;;;;32.07;19.67;;;;;;;;;;6597933;28;20184;-88
2022/12/09 12:12:08;;;;;;;29.30;20.87;;;;;;;;;;6580625;28;20642;-88
2022/12/09 12:15:38;;;;;;;35.37;20.97;;;;;;;;;;6598731;28;20259;-88
2022/12/09 12:18:48;;;;;;;30.00;19.60;;;;;;;;;;6598818;28;20244;-88
2022/12/09 12:21:58;;;;;;;34.40;21.30;;;;;;;;;;6598233;28;20526;-88
2022/12/09 12:25:19;;;;;;;31.63;20.27;;;;;;;;;;6597669;28;20204;-89
2022/12/09 12:28:43;;;;;;;35.30;22.40;;;;;;;;;;6597981;28;20200;-88
2022/12/09 12:31:56;;;;;;;35.97;21.40;;;;;;;;;;6598326;28;20154;-88
2022/12/09 12:35:17;;;;;;;33.73;18.77;;;;;;;;;;6598315;28;20224;-88
2022/12/09 12:38:33;;;;;;;33.60;20.67;;;;;;;;;;6598494;28;20503;-88
2022/12/09 12:41:53;;;;;;;34.33;21.60;;;;;;;;;;6579875;28;20200;-88
2022/12/09 12:48:52;;;;;;;31.33;20.47;;;;;;;;;;6597858;28;20168;-88
2022/12/09 12:52:10;;;;;;;33.87;21.47;;;;;;;;;;6598121;28;20223;-88
2022/12/09 12:55:38;;;;;;;34.63;22.33;;;;;;;;;;6597146;28;20192;-88
2022/12/09 12:58:52;;;;;;;38.23;21.77;;;;;;;;;;6595111;28;20172;-89
2022/12/09 13:02:22;;;;;;;33.50;21.70;;;;;;;;;;6596218;28;20171;-88
2022/12/09 13:05:35;;;;;;;36.13;23.50;;;;;;;;;;6578241;28;20243;-88
2022/12/09 13:08:52;;;;;;;30.83;20.77;;;;;;;;;;6596731;28;20176;-87
2022/12/09 13:12:09;;;;;;;31.63;21.53;;;;;;;;;;6597067;28;20615;-90
2022/12/09 13:15:31;;;;;;;35.37;21.00;;;;;;;;;;6596813;28;20184;-90
2022/12/09 13:18:41;;;;;;;40.47;22.17;;;;;;;;;;6597071;28;20155;-89
2022/12/09 13:21:52;;;;;;;35.43;21.43;;;;;;;;;;6596876;28;20169;-89
2022/12/09 13:25:13;;;;;;;35.53;21.93;;;;;;;;;;6596714;28;20192;-87
2022/12/09 13:28:38;;;;;;;47.30;32.53;;;;;;;;;;6597202;28;20201;-87
2022/12/09 13:32:00;;;;;;;34.23;22.90;;;;;;;;;;6597281;28;20232;-90
2022/12/09 13:35:21;;;;;;;42.67;25.53;;;;;;;;;;6596831;28;20224;-90
2022/12/09 13:38:34;;;;;;;52.90;35.20;;;;;;;;;;6597096;28;20239;-90
2022/12/09 13:45:14;;;;;;;119.70;59.33;;;;;;;;;;6596243;28;20203;-90
2022/12/09 13:48:27;;;;;;;88.67;46.57;;;;;;;;;;6595729;28;20180;-90
2022/12/09 13:51:51;;;;;;;92.70;48.00;;;;;;;;;;6595537;28;20263;-90
2022/12/09 13:55:02;;;;;;;89.30;49.67;;;;;;;;;;6597127;28;20576;-90
2022/12/09 13:58:31;;;;;;;97.17;51.20;;;;;;;;;;6595297;28;20176;-90
2022/12/09 14:01:47;;;;;;;108.23;55.90;;;;;;;;;;6594043;28;20168;-90
2022/12/09 14:05:00;;;;;;;96.50;50.17;;;;;;;;;;6595572;28;20270;-90
2022/12/09 14:08:22;;;;;;;118.13;59.53;;;;;;;;;;6579019;28;20604;-90
2022/12/09 14:11:35;;;;;;;110.67;58.57;;;;;;;;;;6596436;28;20176;-89
2022/12/09 14:14:47;;;;;;;130.27;65.47;;;;;;;;;;6596098;28;20183;-90
2022/12/09 14:17:59;;;;;;;135.57;67.77;;;;;;;;;;6578607;28;20169;-89
2022/12/09 14:21:18;;;;;;;128.57;61.37;;;;;;;;;;6577705;28;20173;-89
2022/12/09 14:24:30;;;;;;;148.40;70.63;;;;;;;;;;6595895;28;20208;-90
2022/12/09 14:28:00;;;;;;;105.97;54.57;;;;;;;;;;6594857;28;20208;-90
2022/12/09 14:31:10;;;;;;;118.13;57.10;;;;;;;;;;6595508;28;20271;-90
2022/12/09 14:34:26;;;;;;;112.27;56.50;;;;;;;;;;6577644;28;20228;-89
2022/12/09 14:37:37;;;;;;;107.93;54.03;;;;;;;;;;6595121;28;20183;-90
2022/12/09 14:40:51;;;;;;;131.53;53.73;;;;;;;;;;6595266;28;20192;-90
2022/12/09 14:44:07;;;;;;;107.23;49.43;;;;;;;;;;6594688;28;20196;-91
2022/12/09 14:47:21;;;;;;;94.90;46.37;;;;;;;;;;6595245;28;20169;-90
2022/12/09 14:50:36;;;;;;;95.53;48.07;;;;;;;;;;6594750;28;20179;-90
2022/12/09 14:53:49;;;;;;;113.00;54.50;;;;;;;;;;6595586;28;20247;-90
2022/12/09 14:57:01;;;;;;;123.57;60.07;;;;;;;;;;6595135;28;20233;-90
2022/12/09 15:00:27;;;;;;;120.13;63.60;;;;;;;;;;6596123;28;20176;-90
2022/12/09 15:03:37;;;;;;;108.30;54.53;;;;;;;;;;6595993;28;20203;-90
2022/12/09 15:06:47;;;;;;;82.40;46.67;;;;;;;;;;6595237;28;20172;-90
2022/12/09 15:10:03;;;;;;;78.20;44.27;;;;;;;;;;6577990;28;20535;-90
2022/12/09 15:13:18;;;;;;;109.27;52.37;;;;;;;;;;6578831;28;20491;-90
2022/12/09 15:16:28;;;;;;;98.07;48.63;;;;;;;;;;6596024;28;20164;-90
2022/12/09 15:19:39;;;;;;;98.63;51.50;;;;;;;;;;6595814;28;20178;-90
2022/12/09 15:22:51;;;;;;;136.80;69.83;;;;;;;;;;6595572;28;20200;-91
2022/12/09 15:26:05;;;;;;;98.83;51.83;;;;;;;;;;6595407;28;20566;-90
2022/12/09 15:29:20;;;;;;;100.67;51.80;;;;;;;;;;6595626;28;20201;-90
2022/12/09 15:32:30;;;;;;;95.30;51.27;;;;;;;;;;6595824;28;20255;-90
2022/12/09 15:35:42;;;;;;;101.27;50.77;;;;;;;;;;6595785;28;20270;-90
2022/12/09 15:38:57;;;;;;;104.17;51.57;;;;;;;;;;6597408;28;20176;-90
2022/12/09 15:42:10;;;;;;;89.60;48.00;;;;;;;;;;6600020;28;20250;-90
2022/12/09 15:45:23;;;;;;;84.77;45.13;;;;;;;;;;6600285;28;20204;-90
2022/12/09 15:48:36;;;;;;;95.00;50.73;;;;;;;;;;6582515;28;20271;-90
2022/12/09 15:51:47;;;;;;;124.47;60.10;;;;;;;;;;6600303;28;20593;-91
2022/12/09 15:54:59;;;;;;;124.07;65.43;;;;;;;;;;6600490;28;20180;-90
2022/12/09 15:58:12;;;;;;;279.17;131.03;;;;;;;;;;6600496;28;20173;-90
2022/12/09 16:01:24;;;;;;;256.63;121.03;;;;;;;;;;6600671;28;20181;-90
2022/12/09 16:04:36;;;;;;;253.90;120.87;;;;;;;;;;6599484;28;20592;-90
2022/12/09 16:07:51;;;;;;;184.60;96.43;;;;;;;;;;6599863;28;20208;-90
2022/12/09 16:11:02;;;;;;;199.77;101.80;;;;;;;;;;6582028;28;20631;-90
2022/12/09 16:14:13;;;;;;;202.70;103.27;;;;;;;;;;6600058;28;20250;-90
2022/12/09 16:17:23;;;;;;;189.50;93.57;;;;;;;;;;6599238;28;20184;-90
2022/12/09 16:20:36;;;;;;;222.07;105.70;;;;;;;;;;6599974;28;20176;-90
2022/12/09 16:23:48;;;;;;;521.07;201.10;;;;;;;;;;6599818;28;20200;-90
2022/12/09 16:26:59;;;;;;;428.53;173.07;;;;;;;;;;6599786;28;20595;-90
2022/12/09 16:30:11;;;;;;;507.60;202.57;;;;;;;;;;6581605;28;20176;-90
2022/12/09 16:33:23;;;;;;;471.23;200.30;;;;;;;;;;6581091;28;20645;-90
2022/12/09 16:36:33;;;;;;;465.37;221.47;;;;;;;;;;6599587;28;20187;-90
2022/12/09 16:39:43;;;;;;;264.17;114.97;;;;;;;;;;6598889;28;20662;-90
2022/12/09 16:43:13;;;;;;;225.20;100.30;;;;;;;;;;6598927;28;20591;-91
2022/12/09 16:46:43;;;;;;;209.13;94.20;;;;;;;;;;6598201;28;20195;-91
2022/12/09 16:49:53;;;;;;;285.50;120.83;;;;;;;;;;6580050;28;20181;-90
2022/12/09 16:53:11;;;;;;;226.30;109.57;;;;;;;;;;6598862;28;20500;-90
2022/12/09 16:56:23;;;;;;;124.50;63.17;;;;;;;;;;6581071;28;20184;-90
2022/12/09 16:59:34;;;;;;;118.17;58.67;;;;;;;;;;6580879;28;20683;-91
2022/12/09 17:02:47;;;;;;;123.27;61.10;;;;;;;;;;6598891;28;20230;-91
2022/12/09 17:05:58;;;;;;;90.47;49.10;;;;;;;;;;6598089;28;20208;-91
2022/12/09 17:09:09;;;;;;;135.53;73.73;;;;;;;;;;6598763;28;20173;-90
2022/12/09 17:12:19;;;;;;;154.23;89.00;;;;;;;;;;6597625;28;20227;-90
2022/12/09 17:15:29;;;;;;;222.43;121.97;;;;;;;;;;6598192;28;20638;-90
2022/12/09 17:18:40;;;;;;;191.30;98.27;;;;;;;;;;6580230;28;20176;-90
2022/12/09 17:21:51;;;;;;;187.90;96.30;;;;;;;;;;6598247;28;20589;-90
2022/12/09 17:25:02;;;;;;;200.93;101.03;;;;;;;;;;6597398;28;20200;-90
2022/12/09 17:28:12;;;;;;;227.10;120.97;;;;;;;;;;6598031;28;20187;-90
2022/12/09 17:31:22;;;;;;;196.13;101.87;;;;;;;;;;6579813;28;20627;-90
2022/12/09 17:34:33;;;;;;;175.53;94.33;;;;;;;;;;6597183;28;20311;-90
2022/12/09 17:37:43;;;;;;;132.07;68.97;;;;;;;;;;6595413;28;20176;-91
2022/12/09 17:40:53;;;;;;;119.53;60.93;;;;;;;;;;6594516;28;20285;-91
2022/12/09 17:44:04;;;;;;;134.30;72.87;;;;;;;;;;6594725;28;20199;-91
2022/12/09 17:47:14;;;;;;;151.77;77.00;;;;;;;;;;6594597;28;20175;-91
2022/12/09 17:50:24;;;;;;;155.27;88.37;;;;;;;;;;6595676;28;20168;-91
2022/12/09 17:53:36;;;;;;;135.23;72.67;;;;;;;;;;6577438;28;20164;-90
2022/12/09 17:56:46;;;;;;;140.50;70.57;;;;;;;;;;6595219;28;20249;-91
2022/12/09 17:59:57;;;;;;;153.73;79.43;;;;;;;;;;6595066;28;20168;-90
2022/12/09 18:03:07;;;;;;;137.63;72.00;;;;;;;;;;6594651;28;20172;-91
2022/12/09 18:06:17;;;;;;;113.83;59.33;;;;;;;;;;6576973;28;20196;-91
2022/12/09 18:09:27;;;;;;;136.67;74.13;;;;;;;;;;6595240;28;20172;-91
2022/12/09 18:12:38;;;;;;;120.77;65.37;;;;;;;;;;6594643;28;20631;-90
2022/12/09 18:15:48;;;;;;;135.30;70.70;;;;;;;;;;6576936;28;20164;-91
2022/12/09 18:19:09;;;;;;;146.37;78.77;;;;;;;;;;6594588;28;20169;-91
2022/12/09 18:22:19;;;;;;;140.00;72.63;;;;;;;;;;6564091;28;20172;-91
2022/12/09 18:25:29;;;;;;;170.00;84.07;;;;;;;;;;6594750;28;20207;-91
2022/12/09 18:28:39;;;;;;;142.30;73.73;;;;;;;;;;6595194;28;20188;-91
2022/12/09 18:31:54;;;;;;;126.70;63.37;;;;;;;;;;6594439;28;20626;-90
2022/12/09 18:35:05;;;;;;;134.47;68.07;;;;;;;;;;6552840;28;1231229;-91
2022/12/09 18:38:15;;;;;;;117.17;60.17;;;;;;;;;;6595865;28;20184;-91
2022/12/09 18:41:28;;;;;;;113.40;56.00;;;;;;;;;;6578943;28;20192;-90
2022/12/09 18:44:38;;;;;;;160.90;78.17;;;;;;;;;;6596454;28;20273;-90